sensor_id;sensor_type;location;lat;lon;timestamp;pressure;altitude;pressure_sealevel;temperature;humidity
27210;BME280;14721;42.668;23.386;2022-11-02T00:00:45;95938.41;;;12.76;63.19
27210;BME280;14721;42.668;23.386;2022-11-02T00:03:11;95935.13;;;12.73;63.66
27210;BME280;14721;42.668;23.386;2022-11-02T00:05:37;95940.59;;;12.59;64.37
27210;BME280;14721;42.668;23.386;2022-11-02T00:08:02;95917.59;;;12.44;64.70
27210;BME280;14721;42.668;23.386;2022-11-02T00:10:28;95937.00;;;12.47;64.94
27210;BME280;14721;42.668;23.386;2022-11-02T00:12:54;95935.47;;;12.43;65.11
27210;BME280;14721;42.668;23.386;2022-11-02T00:15:20;95939.13;;;12.42;64.27
27210;BME280;14721;42.668;23.386;2022-11-02T00:17:53;95935.38;;;12.45;65.11
27210;BME280;14721;42.668;23.386;2022-11-02T00:20:20;95949.00;;;12.42;64.90
27210;BME280;14721;42.668;23.386;2022-11-02T00:22:48;95942.25;;;12.36;64.95
27210;BME280;14721;42.668;23.386;2022-11-02T00:25:17;95936.69;;;12.39;65.32
27210;BME280;14721;42.668;23.386;2022-11-02T00:27:43;95931.00;;;12.31;65.42
27210;BME280;14721;42.668;23.386;2022-11-02T00:30:09;95929.72;;;12.24;65.61
27210;BME280;14721;42.668;23.386;2022-11-02T00:32:35;95934.66;;;12.18;65.98
27210;BME280;14721;42.668;23.386;2022-11-02T00:35:01;95937.34;;;12.18;66.54
27210;BME280;14721;42.668;23.386;2022-11-02T00:37:26;95930.28;;;12.17;66.78
27210;BME280;14721;42.668;23.386;2022-11-02T00:39:52;95915.06;;;11.92;68.06
27210;BME280;14721;42.668;23.386;2022-11-02T00:42:17;95934.56;;;11.94;68.39
27210;BME280;14721;42.668;23.386;2022-11-02T00:44:43;95925.78;;;11.80;69.17
27210;BME280;14721;42.668;23.386;2022-11-02T00:47:08;95934.44;;;11.83;69.13
27210;BME280;14721;42.668;23.386;2022-11-02T00:49:36;95924.81;;;11.81;69.40
27210;BME280;14721;42.668;23.386;2022-11-02T00:52:02;95927.91;;;11.62;69.58
27210;BME280;14721;42.668;23.386;2022-11-02T00:54:28;95914.56;;;11.35;70.95
27210;BME280;14721;42.668;23.386;2022-11-02T00:56:54;95926.56;;;11.42;71.26
27210;BME280;14721;42.668;23.386;2022-11-02T00:59:21;95936.28;;;11.31;71.99
27210;BME280;14721;42.668;23.386;2022-11-02T01:01:46;95936.59;;;11.26;72.16
27210;BME280;14721;42.668;23.386;2022-11-02T01:04:14;95926.84;;;11.25;72.58
27210;BME280;14721;42.668;23.386;2022-11-02T01:06:41;95928.34;;;11.29;72.39
27210;BME280;14721;42.668;23.386;2022-11-02T01:09:07;95935.09;;;11.22;72.83
27210;BME280;14721;42.668;23.386;2022-11-02T01:11:33;95931.53;;;11.22;72.97
27210;BME280;14721;42.668;23.386;2022-11-02T01:13:59;95925.63;;;11.17;72.78
27210;BME280;14721;42.668;23.386;2022-11-02T01:16:25;95928.97;;;11.20;73.03
27210;BME280;14721;42.668;23.386;2022-11-02T01:18:54;95924.91;;;11.15;72.89
27210;BME280;14721;42.668;23.386;2022-11-02T01:21:21;95933.38;;;10.95;73.50
27210;BME280;14721;42.668;23.386;2022-11-02T01:23:47;95941.13;;;10.85;73.96
27210;BME280;14721;42.668;23.386;2022-11-02T01:26:13;95938.47;;;10.85;74.15
27210;BME280;14721;42.668;23.386;2022-11-02T01:28:39;95926.38;;;10.80;74.86
27210;BME280;14721;42.668;23.386;2022-11-02T01:31:06;95933.28;;;10.70;75.00
27210;BME280;14721;42.668;23.386;2022-11-02T01:33:32;95923.19;;;10.61;75.80
27210;BME280;14721;42.668;23.386;2022-11-02T01:35:58;95934.81;;;10.60;76.30
27210;BME280;14721;42.668;23.386;2022-11-02T01:38:26;95924.72;;;10.51;77.06
27210;BME280;14721;42.668;23.386;2022-11-02T01:40:51;95928.38;;;10.36;77.70
27210;BME280;14721;42.668;23.386;2022-11-02T01:45:44;95923.31;;;10.31;78.32
27210;BME280;14721;42.668;23.386;2022-11-02T01:48:10;95919.72;;;10.32;78.49
27210;BME280;14721;42.668;23.386;2022-11-02T01:50:35;95914.09;;;10.37;78.22
27210;BME280;14721;42.668;23.386;2022-11-02T01:53:01;95891.47;;;10.28;78.30
27210;BME280;14721;42.668;23.386;2022-11-02T01:55:28;95921.50;;;10.46;78.01
27210;BME280;14721;42.668;23.386;2022-11-02T01:58:00;95923.00;;;10.50;78.15
27210;BME280;14721;42.668;23.386;2022-11-02T02:00:26;95915.88;;;10.50;77.92
27210;BME280;14721;42.668;23.386;2022-11-02T02:03:03;95920.34;;;10.50;77.89
27210;BME280;14721;42.668;23.386;2022-11-02T02:05:33;95901.56;;;10.37;78.12
27210;BME280;14721;42.668;23.386;2022-11-02T02:08:01;95912.13;;;10.53;77.86
27210;BME280;14721;42.668;23.386;2022-11-02T02:10:27;95910.75;;;10.33;78.79
27210;BME280;14721;42.668;23.386;2022-11-02T02:12:52;95915.75;;;10.11;79.72
27210;BME280;14721;42.668;23.386;2022-11-02T02:15:21;95903.91;;;10.01;79.99
27210;BME280;14721;42.668;23.386;2022-11-02T02:18:01;95911.63;;;10.20;79.69
27210;BME280;14721;42.668;23.386;2022-11-02T02:20:54;95907.53;;;10.14;79.60
27210;BME280;14721;42.668;23.386;2022-11-02T02:23:40;95911.38;;;10.10;79.96
27210;BME280;14721;42.668;23.386;2022-11-02T02:31:37;95903.25;;;10.12;80.20
27210;BME280;14721;42.668;23.386;2022-11-02T02:44:34;95901.78;;;10.06;79.91
27210;BME280;14721;42.668;23.386;2022-11-02T02:47:27;95902.75;;;10.05;80.33
27210;BME280;14721;42.668;23.386;2022-11-02T02:50:15;95904.53;;;10.05;80.04
27210;BME280;14721;42.668;23.386;2022-11-02T02:52:44;95905.13;;;9.96;80.23
27210;BME280;14721;42.668;23.386;2022-11-02T02:55:21;95900.94;;;9.92;80.98
27210;BME280;14721;42.668;23.386;2022-11-02T02:57:48;95887.59;;;9.78;80.90
27210;BME280;14721;42.668;23.386;2022-11-02T03:00:16;95899.72;;;9.83;81.25
27210;BME280;14721;42.668;23.386;2022-11-02T03:02:44;95904.25;;;9.67;81.10
27210;BME280;14721;42.668;23.386;2022-11-02T03:05:28;95901.97;;;9.61;81.44
27210;BME280;14721;42.668;23.386;2022-11-02T03:07:57;95906.94;;;9.53;82.08
27210;BME280;14721;42.668;23.386;2022-11-02T03:10:46;95893.97;;;9.47;82.21
27210;BME280;14721;42.668;23.386;2022-11-02T03:15:52;95926.97;;;9.30;84.20
27210;BME280;14721;42.668;23.386;2022-11-02T03:21:18;95916.00;;;9.21;84.73
27210;BME280;14721;42.668;23.386;2022-11-02T03:24:03;95928.34;;;9.08;85.06
27210;BME280;14721;42.668;23.386;2022-11-02T03:26:38;95927.84;;;9.01;85.89
27210;BME280;14721;42.668;23.386;2022-11-02T03:29:37;95914.50;;;9.01;85.82
27210;BME280;14721;42.668;23.386;2022-11-02T03:32:09;95917.81;;;8.91;86.09
27210;BME280;14721;42.668;23.386;2022-11-02T03:34:48;95927.94;;;8.84;86.88
27210;BME280;14721;42.668;23.386;2022-11-02T03:43:13;95915.03;;;8.63;87.52
27210;BME280;14721;42.668;23.386;2022-11-02T03:45:45;95901.53;;;8.50;87.99
27210;BME280;14721;42.668;23.386;2022-11-02T03:48:13;95916.66;;;8.65;88.25
27210;BME280;14721;42.668;23.386;2022-11-02T03:50:45;95922.78;;;8.81;87.92
27210;BME280;14721;42.668;23.386;2022-11-02T03:53:40;95901.00;;;8.59;87.95
27210;BME280;14721;42.668;23.386;2022-11-02T03:56:13;95906.69;;;8.38;88.78
27210;BME280;14721;42.668;23.386;2022-11-02T03:58:40;95906.25;;;8.61;88.17
27210;BME280;14721;42.668;23.386;2022-11-02T04:01:06;95914.41;;;8.58;88.47
27210;BME280;14721;42.668;23.386;2022-11-02T04:03:38;95913.72;;;8.54;89.03
27210;BME280;14721;42.668;23.386;2022-11-02T04:06:06;95916.38;;;8.54;88.20
27210;BME280;14721;42.668;23.386;2022-11-02T04:08:33;95917.25;;;8.55;88.54
27210;BME280;14721;42.668;23.386;2022-11-02T04:10:59;95906.94;;;8.49;88.74
27210;BME280;14721;42.668;23.386;2022-11-02T04:13:44;95901.44;;;8.52;88.57
27210;BME280;14721;42.668;23.386;2022-11-02T04:16:28;95913.16;;;8.49;88.67
27210;BME280;14721;42.668;23.386;2022-11-02T04:18:53;95903.28;;;8.36;89.09
27210;BME280;14721;42.668;23.386;2022-11-02T04:21:37;95911.94;;;8.39;89.52
27210;BME280;14721;42.668;23.386;2022-11-02T04:24:04;95912.81;;;8.40;89.58
27210;BME280;14721;42.668;23.386;2022-11-02T04:26:48;95900.97;;;8.30;89.87
27210;BME280;14721;42.668;23.386;2022-11-02T04:29:14;95909.88;;;8.29;89.88
27210;BME280;14721;42.668;23.386;2022-11-02T04:31:39;95915.19;;;8.29;89.64
27210;BME280;14721;42.668;23.386;2022-11-02T04:34:05;95909.97;;;8.27;89.65
27210;BME280;14721;42.668;23.386;2022-11-02T04:36:31;95910.47;;;8.34;89.55
27210;BME280;14721;42.668;23.386;2022-11-02T04:38:57;95912.38;;;8.32;89.71
27210;BME280;14721;42.668;23.386;2022-11-02T04:41:24;95915.81;;;8.34;89.22
27210;BME280;14721;42.668;23.386;2022-11-02T04:44:12;95916.06;;;8.29;89.34
27210;BME280;14721;42.668;23.386;2022-11-02T04:46:42;95920.63;;;8.43;89.19
27210;BME280;14721;42.668;23.386;2022-11-02T04:49:10;95918.56;;;8.48;89.00
27210;BME280;14721;42.668;23.386;2022-11-02T04:51:37;95921.06;;;8.51;88.80
27210;BME280;14721;42.668;23.386;2022-11-02T04:54:10;95924.63;;;8.65;88.27
27210;BME280;14721;42.668;23.386;2022-11-02T04:56:37;95920.94;;;8.68;88.17
27210;BME280;14721;42.668;23.386;2022-11-02T04:59:02;95920.94;;;8.68;87.85
27210;BME280;14721;42.668;23.386;2022-11-02T05:01:28;95920.78;;;8.55;87.45
27210;BME280;14721;42.668;23.386;2022-11-02T05:03:55;95920.53;;;8.60;87.63
27210;BME280;14721;42.668;23.386;2022-11-02T05:06:22;95923.06;;;8.77;87.32
27210;BME280;14721;42.668;23.386;2022-11-02T05:08:48;95914.91;;;8.80;87.42
27210;BME280;14721;42.668;23.386;2022-11-02T05:11:14;95922.13;;;8.78;87.89
27210;BME280;14721;42.668;23.386;2022-11-02T05:13:40;95921.78;;;8.84;87.43
27210;BME280;14721;42.668;23.386;2022-11-02T05:16:10;95928.56;;;8.89;87.24
27210;BME280;14721;42.668;23.386;2022-11-02T05:18:36;95932.75;;;8.93;87.36
27210;BME280;14721;42.668;23.386;2022-11-02T05:21:02;95929.19;;;9.08;87.26
27210;BME280;14721;42.668;23.386;2022-11-02T05:23:29;95929.94;;;9.26;86.47
27210;BME280;14721;42.668;23.386;2022-11-02T05:26:06;95920.22;;;9.39;85.68
27210;BME280;14721;42.668;23.386;2022-11-02T05:28:32;95934.69;;;9.79;84.69
27210;BME280;14721;42.668;23.386;2022-11-02T05:30:59;95934.63;;;10.08;83.01
27210;BME280;14721;42.668;23.386;2022-11-02T05:33:26;95944.97;;;10.55;81.17
27210;BME280;14721;42.668;23.386;2022-11-02T05:35:54;95950.31;;;10.81;79.38
27210;BME280;14721;42.668;23.386;2022-11-02T05:38:21;95949.13;;;10.99;78.25
27210;BME280;14721;42.668;23.386;2022-11-02T05:40:52;95952.06;;;11.48;75.88
27210;BME280;14721;42.668;23.386;2022-11-02T05:43:17;95948.50;;;11.87;74.73
27210;BME280;14721;42.668;23.386;2022-11-02T05:45:43;95932.97;;;12.17;72.50
27210;BME280;14721;42.668;23.386;2022-11-02T05:48:08;95945.41;;;12.66;71.21
27210;BME280;14721;42.668;23.386;2022-11-02T05:50:34;95960.09;;;12.97;68.97
27210;BME280;14721;42.668;23.386;2022-11-02T05:52:59;95958.31;;;13.21;67.97
27210;BME280;14721;42.668;23.386;2022-11-02T05:55:25;95945.03;;;13.43;65.82
27210;BME280;14721;42.668;23.386;2022-11-02T05:57:54;95976.50;;;13.76;63.66
27210;BME280;14721;42.668;23.386;2022-11-02T06:00:22;95972.53;;;13.92;62.61
27210;BME280;14721;42.668;23.386;2022-11-02T06:02:48;95950.00;;;14.17;61.24
27210;BME280;14721;42.668;23.386;2022-11-02T06:05:14;95974.13;;;14.62;59.85
27210;BME280;14721;42.668;23.386;2022-11-02T06:07:39;95970.44;;;14.85;58.68
27210;BME280;14721;42.668;23.386;2022-11-02T06:10:05;95973.84;;;15.09;57.76
27210;BME280;14721;42.668;23.386;2022-11-02T06:12:31;95981.78;;;15.22;56.80
27210;BME280;14721;42.668;23.386;2022-11-02T06:14:57;95977.41;;;15.53;55.51
27210;BME280;14721;42.668;23.386;2022-11-02T06:17:22;95956.88;;;15.52;54.86
27210;BME280;14721;42.668;23.386;2022-11-02T06:19:47;95976.75;;;15.71;54.31
27210;BME280;14721;42.668;23.386;2022-11-02T06:22:13;95974.31;;;15.89;53.90
27210;BME280;14721;42.668;23.386;2022-11-02T06:24:38;95978.97;;;15.87;53.44
27210;BME280;14721;42.668;23.386;2022-11-02T06:27:04;95982.38;;;16.00;53.15
27210;BME280;14721;42.668;23.386;2022-11-02T06:29:29;95980.84;;;16.07;53.16
27210;BME280;14721;42.668;23.386;2022-11-02T06:31:55;95965.66;;;16.47;52.09
27210;BME280;14721;42.668;23.386;2022-11-02T06:34:20;95963.44;;;16.52;51.63
27210;BME280;14721;42.668;23.386;2022-11-02T06:36:45;95977.38;;;16.87;50.57
27210;BME280;14721;42.668;23.386;2022-11-02T06:39:11;95977.94;;;16.90;51.05
27210;BME280;14721;42.668;23.386;2022-11-02T06:41:36;95978.50;;;17.24;49.98
27210;BME280;14721;42.668;23.386;2022-11-02T06:44:02;95973.59;;;17.48;49.52
27210;BME280;14721;42.668;23.386;2022-11-02T06:46:27;95975.31;;;17.59;49.55
27210;BME280;14721;42.668;23.386;2022-11-02T06:48:52;95966.78;;;18.11;47.69
27210;BME280;14721;42.668;23.386;2022-11-02T06:51:18;95972.66;;;18.81;46.25
27210;BME280;14721;42.668;23.386;2022-11-02T06:53:46;95956.50;;;18.99;45.70
27210;BME280;14721;42.668;23.386;2022-11-02T06:56:11;95967.50;;;18.88;46.42
27210;BME280;14721;42.668;23.386;2022-11-02T06:58:37;95973.34;;;19.20;45.30
27210;BME280;14721;42.668;23.386;2022-11-02T07:01:06;95954.75;;;19.34;45.13
27210;BME280;14721;42.668;23.386;2022-11-02T07:03:32;95964.81;;;19.69;44.26
27210;BME280;14721;42.668;23.386;2022-11-02T07:05:58;95957.47;;;20.14;43.52
27210;BME280;14721;42.668;23.386;2022-11-02T07:08:24;95958.78;;;20.27;43.20
27210;BME280;14721;42.668;23.386;2022-11-02T07:10:50;95958.50;;;20.13;43.19
27210;BME280;14721;42.668;23.386;2022-11-02T07:13:15;95964.75;;;20.31;42.72
27210;BME280;14721;42.668;23.386;2022-11-02T07:15:41;95944.34;;;20.27;42.38
27210;BME280;14721;42.668;23.386;2022-11-02T07:18:07;95953.88;;;20.74;42.06
27210;BME280;14721;42.668;23.386;2022-11-02T07:20:32;95957.22;;;20.68;41.71
27210;BME280;14721;42.668;23.386;2022-11-02T07:22:59;95940.69;;;20.87;41.26
27210;BME280;14721;42.668;23.386;2022-11-02T07:25:26;95945.31;;;21.20;41.21
27210;BME280;14721;42.668;23.386;2022-11-02T07:27:53;95956.75;;;21.32;40.81
27210;BME280;14721;42.668;23.386;2022-11-02T07:30:18;95941.28;;;21.74;39.56
27210;BME280;14721;42.668;23.386;2022-11-02T07:32:45;95953.75;;;22.00;39.54
27210;BME280;14721;42.668;23.386;2022-11-02T07:35:12;95932.47;;;22.04;38.81
27210;BME280;14721;42.668;23.386;2022-11-02T07:37:38;95948.66;;;22.13;39.23
27210;BME280;14721;42.668;23.386;2022-11-02T07:40:05;95946.97;;;22.28;38.91
27210;BME280;14721;42.668;23.386;2022-11-02T07:42:31;95926.22;;;22.19;38.57
27210;BME280;14721;42.668;23.386;2022-11-02T07:44:57;95938.28;;;22.41;38.40
27210;BME280;14721;42.668;23.386;2022-11-02T07:47:22;95941.88;;;22.25;38.81
27210;BME280;14721;42.668;23.386;2022-11-02T07:49:48;95931.31;;;22.06;39.08
27210;BME280;14721;42.668;23.386;2022-11-02T07:52:13;95942.00;;;21.84;39.86
27210;BME280;14721;42.668;23.386;2022-11-02T07:54:39;95940.50;;;21.48;40.56
27210;BME280;14721;42.668;23.386;2022-11-02T07:57:09;95939.50;;;21.15;40.94
27210;BME280;14721;42.668;23.386;2022-11-02T07:59:35;95931.38;;;20.64;41.47
27210;BME280;14721;42.668;23.386;2022-11-02T08:02:01;95933.72;;;20.33;42.43
27210;BME280;14721;42.668;23.386;2022-11-02T08:04:26;95940.19;;;19.97;43.29
27210;BME280;14721;42.668;23.386;2022-11-02T08:06:52;95939.00;;;19.82;44.11
27210;BME280;14721;42.668;23.386;2022-11-02T08:09:17;95933.63;;;19.38;44.88
27210;BME280;14721;42.668;23.386;2022-11-02T08:11:43;95931.25;;;19.25;45.62
27210;BME280;14721;42.668;23.386;2022-11-02T08:14:08;95933.22;;;19.06;45.93
27210;BME280;14721;42.668;23.386;2022-11-02T08:16:34;95927.59;;;18.90;46.44
27210;BME280;14721;42.668;23.386;2022-11-02T08:18:59;95930.06;;;18.73;47.37
27210;BME280;14721;42.668;23.386;2022-11-02T08:21:25;95930.94;;;18.74;47.47
27210;BME280;14721;42.668;23.386;2022-11-02T08:23:51;95914.91;;;18.53;47.30
27210;BME280;14721;42.668;23.386;2022-11-02T08:26:16;95917.50;;;18.45;48.34
27210;BME280;14721;42.668;23.386;2022-11-02T08:28:41;95903.25;;;18.34;48.65
27210;BME280;14721;42.668;23.386;2022-11-02T08:31:16;95907.72;;;18.16;49.02
27210;BME280;14721;42.668;23.386;2022-11-02T08:33:42;95910.50;;;18.33;49.31
27210;BME280;14721;42.668;23.386;2022-11-02T08:36:08;95914.19;;;18.51;49.11
27210;BME280;14721;42.668;23.386;2022-11-02T08:38:35;95886.88;;;18.35;49.41
27210;BME280;14721;42.668;23.386;2022-11-02T08:41:01;95910.47;;;18.52;49.00
27210;BME280;14721;42.668;23.386;2022-11-02T08:43:26;95897.00;;;18.43;49.18
27210;BME280;14721;42.668;23.386;2022-11-02T08:45:56;95909.59;;;18.61;48.99
27210;BME280;14721;42.668;23.386;2022-11-02T08:48:22;95897.63;;;18.64;48.32
27210;BME280;14721;42.668;23.386;2022-11-02T08:50:48;95887.19;;;18.69;48.54
27210;BME280;14721;42.668;23.386;2022-11-02T08:53:13;95897.69;;;18.82;48.23
27210;BME280;14721;42.668;23.386;2022-11-02T08:55:39;95891.41;;;18.81;48.20
27210;BME280;14721;42.668;23.386;2022-11-02T08:58:04;95901.41;;;18.81;48.14
27210;BME280;14721;42.668;23.386;2022-11-02T09:00:32;95890.75;;;18.79;47.86
27210;BME280;14721;42.668;23.386;2022-11-02T09:03:10;95896.19;;;18.69;48.71
27210;BME280;14721;42.668;23.386;2022-11-02T09:05:41;95887.16;;;18.79;48.15
27210;BME280;14721;42.668;23.386;2022-11-02T09:08:13;95889.75;;;18.98;47.44
27210;BME280;14721;42.668;23.386;2022-11-02T09:10:39;95894.44;;;19.05;47.31
27210;BME280;14721;42.668;23.386;2022-11-02T09:13:06;95870.66;;;18.99;47.17
27210;BME280;14721;42.668;23.386;2022-11-02T09:15:35;95878.88;;;19.07;47.02
27210;BME280;14721;42.668;23.386;2022-11-02T09:18:05;95882.69;;;19.14;47.09
27210;BME280;14721;42.668;23.386;2022-11-02T09:20:33;95872.31;;;19.10;47.28
27210;BME280;14721;42.668;23.386;2022-11-02T09:22:58;95871.63;;;19.08;47.51
27210;BME280;14721;42.668;23.386;2022-11-02T09:25:24;95865.03;;;19.10;47.40
27210;BME280;14721;42.668;23.386;2022-11-02T09:27:53;95863.41;;;19.17;47.29
27210;BME280;14721;42.668;23.386;2022-11-02T09:30:19;95865.19;;;19.26;47.22
27210;BME280;14721;42.668;23.386;2022-11-02T09:32:52;95833.28;;;19.03;47.04
27210;BME280;14721;42.668;23.386;2022-11-02T09:35:18;95853.19;;;19.11;47.53
27210;BME280;14721;42.668;23.386;2022-11-02T09:37:43;95839.66;;;19.11;47.43
27210;BME280;14721;42.668;23.386;2022-11-02T09:40:10;95857.78;;;19.11;47.53
27210;BME280;14721;42.668;23.386;2022-11-02T09:42:58;95853.81;;;19.05;48.05
27210;BME280;14721;42.668;23.386;2022-11-02T09:45:25;95848.72;;;19.20;47.68
27210;BME280;14721;42.668;23.386;2022-11-02T09:50:37;95815.22;;;19.21;47.49
27210;BME280;14721;42.668;23.386;2022-11-02T09:53:06;95829.97;;;19.36;47.46
27210;BME280;14721;42.668;23.386;2022-11-02T09:55:35;95819.88;;;19.46;47.46
27210;BME280;14721;42.668;23.386;2022-11-02T09:58:06;95808.81;;;19.57;46.73
27210;BME280;14721;42.668;23.386;2022-11-02T10:00:39;95820.31;;;19.76;46.38
27210;BME280;14721;42.668;23.386;2022-11-02T10:03:27;95803.03;;;19.77;46.26
27210;BME280;14721;42.668;23.386;2022-11-02T10:06:10;95806.56;;;19.95;46.05
27210;BME280;14721;42.668;23.386;2022-11-02T10:14:07;95783.41;;;20.09;45.37
27210;BME280;14721;42.668;23.386;2022-11-02T10:16:39;95786.38;;;20.15;45.29
27210;BME280;14721;42.668;23.386;2022-11-02T10:19:14;95768.31;;;20.06;45.07
27210;BME280;14721;42.668;23.386;2022-11-02T10:21:44;95768.00;;;20.09;45.04
27210;BME280;14721;42.668;23.386;2022-11-02T10:24:32;95784.41;;;20.25;45.18
27210;BME280;14721;42.668;23.386;2022-11-02T10:27:01;95770.19;;;20.31;44.88
27210;BME280;14721;42.668;23.386;2022-11-02T10:29:32;95780.28;;;20.47;44.76
27210;BME280;14721;42.668;23.386;2022-11-02T10:32:00;95785.72;;;20.55;44.21
27210;BME280;14721;42.668;23.386;2022-11-02T10:34:27;95773.06;;;20.64;44.02
27210;BME280;14721;42.668;23.386;2022-11-02T10:48:28;95755.22;;;21.03;43.80
27210;BME280;14721;42.668;23.386;2022-11-02T10:53:21;95724.66;;;21.09;43.50
27210;BME280;14721;42.668;23.386;2022-11-02T10:55:57;95741.50;;;21.28;43.18
27210;BME280;14721;42.668;23.386;2022-11-02T10:58:27;95742.88;;;21.40;43.22
27210;BME280;14721;42.668;23.386;2022-11-02T11:01:13;95730.97;;;21.49;42.61
27210;BME280;14721;42.668;23.386;2022-11-02T11:03:54;95730.63;;;21.60;42.59
27210;BME280;14721;42.668;23.386;2022-11-02T11:06:22;95715.66;;;21.56;42.62
27210;BME280;14721;42.668;23.386;2022-11-02T11:08:49;95724.88;;;21.79;41.39
27210;BME280;14721;42.668;23.386;2022-11-02T11:11:29;95716.50;;;21.89;40.90
27210;BME280;14721;42.668;23.386;2022-11-02T11:14:03;95720.38;;;22.02;40.55
27210;BME280;14721;42.668;23.386;2022-11-02T11:16:39;95712.56;;;22.07;40.20
27210;BME280;14721;42.668;23.386;2022-11-02T11:19:38;95706.25;;;22.15;39.81
27210;BME280;14721;42.668;23.386;2022-11-02T11:22:37;95709.44;;;22.26;39.69
27210;BME280;14721;42.668;23.386;2022-11-02T11:27:57;95693.69;;;22.45;39.55
27210;BME280;14721;42.668;23.386;2022-11-02T11:32:50;95664.44;;;22.55;38.25
27210;BME280;14721;42.668;23.386;2022-11-02T11:35:18;95670.94;;;22.76;37.73
27210;BME280;14721;42.668;23.386;2022-11-02T11:37:51;95674.59;;;22.91;37.47
27210;BME280;14721;42.668;23.386;2022-11-02T11:40:19;95668.22;;;22.99;37.10
27210;BME280;14721;42.668;23.386;2022-11-02T11:42:51;95673.63;;;23.07;36.67
27210;BME280;14721;42.668;23.386;2022-11-02T11:47:52;95668.41;;;23.28;36.25
27210;BME280;14721;42.668;23.386;2022-11-02T11:50:18;95659.75;;;23.39;35.61
27210;BME280;14721;42.668;23.386;2022-11-02T11:52:44;95654.25;;;23.47;34.81
27210;BME280;14721;42.668;23.386;2022-11-02T11:55:28;95645.88;;;23.48;33.91
27210;BME280;14721;42.668;23.386;2022-11-02T11:58:22;95646.00;;;23.55;33.39
27210;BME280;14721;42.668;23.386;2022-11-02T12:01:06;95639.44;;;23.64;32.83
27210;BME280;14721;42.668;23.386;2022-11-02T12:03:32;95640.38;;;23.71;32.22
27210;BME280;14721;42.668;23.386;2022-11-02T12:13:59;95629.94;;;23.89;29.76
27210;BME280;14721;42.668;23.386;2022-11-02T12:30:29;95604.47;;;24.11;29.62
27210;BME280;14721;42.668;23.386;2022-11-02T12:40:44;95587.81;;;24.06;29.77
27210;BME280;14721;42.668;23.386;2022-11-02T12:43:32;95596.56;;;24.16;29.52
27210;BME280;14721;42.668;23.386;2022-11-02T12:49:00;95595.31;;;24.19;30.25
27210;BME280;14721;42.668;23.386;2022-11-02T12:54:12;95570.94;;;24.17;30.12
27210;BME280;14721;42.668;23.386;2022-11-02T12:56:44;95587.41;;;24.24;30.24
27210;BME280;14721;42.668;23.386;2022-11-02T13:01:46;95590.25;;;24.30;29.97
27210;BME280;14721;42.668;23.386;2022-11-02T13:06:48;95585.59;;;24.31;29.87
27210;BME280;14721;42.668;23.386;2022-11-02T13:09:24;95588.63;;;24.36;29.76
27210;BME280;14721;42.668;23.386;2022-11-02T13:14:37;95588.16;;;24.32;29.52
27210;BME280;14721;42.668;23.386;2022-11-02T13:19:52;95586.84;;;24.28;29.46
27210;BME280;14721;42.668;23.386;2022-11-02T13:22:21;95576.03;;;24.20;29.76
27210;BME280;14721;42.668;23.386;2022-11-02T13:24:54;95550.91;;;24.10;29.53
27210;BME280;14721;42.668;23.386;2022-11-02T13:29:53;95557.59;;;24.08;29.53
27210;BME280;14721;42.668;23.386;2022-11-02T13:32:24;95570.94;;;24.17;29.65
27210;BME280;14721;42.668;23.386;2022-11-02T13:34:53;95576.59;;;24.16;29.71
27210;BME280;14721;42.668;23.386;2022-11-02T13:37:27;95571.25;;;24.08;29.58
27210;BME280;14721;42.668;23.386;2022-11-02T13:40:02;95579.06;;;24.11;29.54
27210;BME280;14721;42.668;23.386;2022-11-02T13:50:33;95579.06;;;23.96;29.78
27210;BME280;14721;42.668;23.386;2022-11-02T13:53:04;95569.28;;;24.02;29.83
27210;BME280;14721;42.668;23.386;2022-11-02T13:55:50;95549.13;;;23.88;29.89
27210;BME280;14721;42.668;23.386;2022-11-02T14:00:53;95566.81;;;23.92;29.74
27210;BME280;14721;42.668;23.386;2022-11-02T14:06:12;95564.72;;;23.79;29.94
27210;BME280;14721;42.668;23.386;2022-11-02T14:08:54;95565.66;;;23.72;29.92
27210;BME280;14721;42.668;23.386;2022-11-02T14:16:44;95572.25;;;23.63;30.22
27210;BME280;14721;42.668;23.386;2022-11-02T14:26:56;95568.00;;;23.46;30.57
27210;BME280;14721;42.668;23.386;2022-11-02T14:29:49;95559.72;;;23.25;31.05
27210;BME280;14721;42.668;23.386;2022-11-02T14:39:59;95576.47;;;23.14;31.54
27210;BME280;14721;42.668;23.386;2022-11-02T14:47:36;95574.44;;;22.93;31.98
27210;BME280;14721;42.668;23.386;2022-11-02T14:50:15;95577.53;;;22.90;32.26
27210;BME280;14721;42.668;23.386;2022-11-02T14:52:56;95574.22;;;22.80;32.65
27210;BME280;14721;42.668;23.386;2022-11-02T14:55:33;95568.03;;;22.64;32.68
27210;BME280;14721;42.668;23.386;2022-11-02T14:58:02;95576.56;;;22.61;32.73
27210;BME280;14721;42.668;23.386;2022-11-02T15:00:34;95578.97;;;22.56;33.01
27210;BME280;14721;42.668;23.386;2022-11-02T15:03:06;95571.88;;;22.39;33.28
27210;BME280;14721;42.668;23.386;2022-11-02T15:05:37;95586.00;;;22.42;33.45
27210;BME280;14721;42.668;23.386;2022-11-02T15:10:42;95591.03;;;22.22;33.65
27210;BME280;14721;42.668;23.386;2022-11-02T15:27:07;95601.13;;;21.59;34.92
27210;BME280;14721;42.668;23.386;2022-11-02T15:29:31;95599.09;;;21.45;35.37
27210;BME280;14721;42.668;23.386;2022-11-02T15:31:59;95577.72;;;21.26;35.37
27210;BME280;14721;42.668;23.386;2022-11-02T15:34:35;95604.41;;;21.31;35.53
27210;BME280;14721;42.668;23.386;2022-11-02T15:37:03;95590.31;;;21.11;35.70
27210;BME280;14721;42.668;23.386;2022-11-02T15:39:30;95595.56;;;21.05;35.88
27210;BME280;14721;42.668;23.386;2022-11-02T15:45:10;95615.09;;;20.92;36.49
27210;BME280;14721;42.668;23.386;2022-11-02T15:48:20;95622.38;;;20.92;36.54
27210;BME280;14721;42.668;23.386;2022-11-02T15:51:35;95623.72;;;20.80;36.89
27210;BME280;14721;42.668;23.386;2022-11-02T16:02:51;95638.28;;;20.38;38.21